sensor_id;sensor_type;location;lat;lon;timestamp;P1;durP1;ratioP1;P2;durP2;ratioP2
22298;SDS011;11317;51.072;17.036;2023-05-24T00:02:13;11.40;;;7.30;;
22298;SDS011;11317;51.072;17.036;2023-05-24T00:04:39;9.25;;;6.90;;
22298;SDS011;11317;51.072;17.036;2023-05-24T00:07:06;10.60;;;7.15;;
22298;SDS011;11317;51.072;17.036;2023-05-24T00:09:32;12.60;;;7.10;;
22298;SDS011;11317;51.072;17.036;2023-05-24T00:11:58;7.97;;;5.82;;
22298;SDS011;11317;51.072;17.036;2023-05-24T00:14:25;6.90;;;5.70;;
22298;SDS011;11317;51.072;17.036;2023-05-24T00:16:51;8.55;;;5.45;;
22298;SDS011;11317;51.072;17.036;2023-05-24T00:19:17;3.95;;;3.28;;
22298;SDS011;11317;51.072;17.036;2023-05-24T00:21:49;5.53;;;2.85;;
22298;SDS011;11317;51.072;17.036;2023-05-24T00:24:15;4.35;;;2.65;;
22298;SDS011;11317;51.072;17.036;2023-05-24T00:26:41;3.50;;;2.40;;
22298;SDS011;11317;51.072;17.036;2023-05-24T00:29:07;1.80;;;1.67;;
22298;SDS011;11317;51.072;17.036;2023-05-24T00:31:33;2.13;;;1.90;;
22298;SDS011;11317;51.072;17.036;2023-05-24T00:33:59;1.85;;;1.52;;
22298;SDS011;11317;51.072;17.036;2023-05-24T00:36:25;4.68;;;1.85;;
22298;SDS011;11317;51.072;17.036;2023-05-24T00:38:52;2.33;;;1.40;;
22298;SDS011;11317;51.072;17.036;2023-05-24T00:41:18;1.83;;;1.65;;
22298;SDS011;11317;51.072;17.036;2023-05-24T00:43:44;1.75;;;1.65;;
22298;SDS011;11317;51.072;17.036;2023-05-24T00:46:28;1.90;;;1.80;;
22298;SDS011;11317;51.072;17.036;2023-05-24T00:48:56;2.65;;;1.40;;
22298;SDS011;11317;51.072;17.036;2023-05-24T00:51:22;2.45;;;1.65;;
22298;SDS011;11317;51.072;17.036;2023-05-24T00:53:51;1.40;;;1.10;;
22298;SDS011;11317;51.072;17.036;2023-05-24T00:56:17;1.35;;;1.25;;
22298;SDS011;11317;51.072;17.036;2023-05-24T00:58:43;4.18;;;2.67;;
22298;SDS011;11317;51.072;17.036;2023-05-24T01:01:10;1.70;;;1.55;;
22298;SDS011;11317;51.072;17.036;2023-05-24T01:03:36;1.48;;;1.38;;
22298;SDS011;11317;51.072;17.036;2023-05-24T01:06:04;2.30;;;1.00;;
22298;SDS011;11317;51.072;17.036;2023-05-24T01:10:58;1.30;;;1.20;;
22298;SDS011;11317;51.072;17.036;2023-05-24T01:13:34;1.08;;;0.98;;
22298;SDS011;11317;51.072;17.036;2023-05-24T01:16:11;2.70;;;1.23;;
22298;SDS011;11317;51.072;17.036;2023-05-24T01:18:49;2.28;;;1.10;;
22298;SDS011;11317;51.072;17.036;2023-05-24T01:29:36;2.35;;;1.35;;
22298;SDS011;11317;51.072;17.036;2023-05-24T01:32:03;1.15;;;1.00;;
22298;SDS011;11317;51.072;17.036;2023-05-24T01:34:29;1.20;;;1.10;;
22298;SDS011;11317;51.072;17.036;2023-05-24T01:36:57;2.97;;;1.02;;
22298;SDS011;11317;51.072;17.036;2023-05-24T01:39:26;1.30;;;1.20;;
22298;SDS011;11317;51.072;17.036;2023-05-24T01:44:46;2.03;;;1.38;;
22298;SDS011;11317;51.072;17.036;2023-05-24T01:50:30;1.40;;;1.30;;
22298;SDS011;11317;51.072;17.036;2023-05-24T01:52:57;1.85;;;1.08;;
22298;SDS011;11317;51.072;17.036;2023-05-24T01:55:28;2.88;;;1.40;;
22298;SDS011;11317;51.072;17.036;2023-05-24T01:57:57;2.25;;;1.40;;
22298;SDS011;11317;51.072;17.036;2023-05-24T02:00:27;1.70;;;1.60;;
22298;SDS011;11317;51.072;17.036;2023-05-24T02:02:55;2.83;;;1.70;;
22298;SDS011;11317;51.072;17.036;2023-05-24T02:05:22;4.20;;;1.73;;
22298;SDS011;11317;51.072;17.036;2023-05-24T02:07:48;5.70;;;1.92;;
22298;SDS011;11317;51.072;17.036;2023-05-24T02:10:15;3.70;;;1.45;;
22298;SDS011;11317;51.072;17.036;2023-05-24T02:12:41;4.32;;;1.92;;
22298;SDS011;11317;51.072;17.036;2023-05-24T02:15:07;7.63;;;2.25;;
22298;SDS011;11317;51.072;17.036;2023-05-24T02:17:34;2.50;;;1.65;;
22298;SDS011;11317;51.072;17.036;2023-05-24T02:20:01;7.35;;;2.20;;
22298;SDS011;11317;51.072;17.036;2023-05-24T02:22:28;2.80;;;1.85;;
22298;SDS011;11317;51.072;17.036;2023-05-24T02:24:54;2.80;;;1.60;;
22298;SDS011;11317;51.072;17.036;2023-05-24T02:27:20;2.67;;;1.77;;
22298;SDS011;11317;51.072;17.036;2023-05-24T02:29:45;3.05;;;1.98;;
22298;SDS011;11317;51.072;17.036;2023-05-24T02:32:12;2.45;;;1.70;;
22298;SDS011;11317;51.072;17.036;2023-05-24T02:34:38;3.13;;;1.70;;
22298;SDS011;11317;51.072;17.036;2023-05-24T02:37:04;3.88;;;1.55;;
22298;SDS011;11317;51.072;17.036;2023-05-24T02:39:30;3.33;;;1.50;;
22298;SDS011;11317;51.072;17.036;2023-05-24T02:41:56;2.40;;;1.63;;
22298;SDS011;11317;51.072;17.036;2023-05-24T02:44:22;4.80;;;1.48;;
22298;SDS011;11317;51.072;17.036;2023-05-24T02:46:48;2.55;;;1.30;;
22298;SDS011;11317;51.072;17.036;2023-05-24T02:49:14;3.63;;;1.63;;
22298;SDS011;11317;51.072;17.036;2023-05-24T02:51:40;2.75;;;1.42;;
22298;SDS011;11317;51.072;17.036;2023-05-24T02:54:07;1.38;;;1.20;;
22298;SDS011;11317;51.072;17.036;2023-05-24T02:56:33;1.67;;;1.40;;
22298;SDS011;11317;51.072;17.036;2023-05-24T02:58:59;2.67;;;1.48;;
22298;SDS011;11317;51.072;17.036;2023-05-24T03:01:25;4.82;;;1.48;;
22298;SDS011;11317;51.072;17.036;2023-05-24T03:03:51;2.00;;;1.50;;
22298;SDS011;11317;51.072;17.036;2023-05-24T03:06:17;5.07;;;1.50;;
22298;SDS011;11317;51.072;17.036;2023-05-24T03:08:43;2.65;;;1.70;;
22298;SDS011;11317;51.072;17.036;2023-05-24T03:11:09;3.50;;;1.75;;
22298;SDS011;11317;51.072;17.036;2023-05-24T03:13:35;2.97;;;1.50;;
22298;SDS011;11317;51.072;17.036;2023-05-24T03:16:01;3.10;;;1.58;;
22298;SDS011;11317;51.072;17.036;2023-05-24T03:18:26;5.15;;;2.30;;
22298;SDS011;11317;51.072;17.036;2023-05-24T03:20:53;3.38;;;2.05;;
22298;SDS011;11317;51.072;17.036;2023-05-24T03:23:19;2.92;;;1.90;;
22298;SDS011;11317;51.072;17.036;2023-05-24T03:25:45;4.18;;;2.67;;
22298;SDS011;11317;51.072;17.036;2023-05-24T03:28:11;4.05;;;2.20;;
22298;SDS011;11317;51.072;17.036;2023-05-24T03:30:39;2.88;;;2.17;;
22298;SDS011;11317;51.072;17.036;2023-05-24T03:33:05;2.90;;;1.52;;
22298;SDS011;11317;51.072;17.036;2023-05-24T03:35:31;3.95;;;1.73;;
22298;SDS011;11317;51.072;17.036;2023-05-24T03:37:57;2.30;;;1.58;;
22298;SDS011;11317;51.072;17.036;2023-05-24T03:40:23;2.42;;;1.60;;
22298;SDS011;11317;51.072;17.036;2023-05-24T03:42:50;3.00;;;1.65;;
22298;SDS011;11317;51.072;17.036;2023-05-24T03:45:16;2.80;;;1.48;;
22298;SDS011;11317;51.072;17.036;2023-05-24T03:47:42;1.40;;;1.30;;
22298;SDS011;11317;51.072;17.036;2023-05-24T03:50:08;1.48;;;1.38;;
22298;SDS011;11317;51.072;17.036;2023-05-24T03:52:34;1.95;;;1.80;;
22298;SDS011;11317;51.072;17.036;2023-05-24T03:55:00;2.00;;;1.60;;
22298;SDS011;11317;51.072;17.036;2023-05-24T03:57:26;3.30;;;1.90;;
22298;SDS011;11317;51.072;17.036;2023-05-24T03:59:52;3.70;;;1.63;;
22298;SDS011;11317;51.072;17.036;2023-05-24T04:02:18;2.13;;;1.58;;
22298;SDS011;11317;51.072;17.036;2023-05-24T04:04:44;2.15;;;1.52;;
22298;SDS011;11317;51.072;17.036;2023-05-24T04:07:10;1.40;;;1.30;;
22298;SDS011;11317;51.072;17.036;2023-05-24T04:09:39;2.08;;;1.30;;
22298;SDS011;11317;51.072;17.036;2023-05-24T04:12:05;3.40;;;1.63;;
22298;SDS011;11317;51.072;17.036;2023-05-24T04:14:31;3.78;;;1.40;;
22298;SDS011;11317;51.072;17.036;2023-05-24T04:16:57;2.05;;;1.40;;
22298;SDS011;11317;51.072;17.036;2023-05-24T04:19:23;3.28;;;1.30;;
22298;SDS011;11317;51.072;17.036;2023-05-24T04:21:49;2.22;;;1.80;;
22298;SDS011;11317;51.072;17.036;2023-05-24T04:24:15;5.07;;;1.35;;
22298;SDS011;11317;51.072;17.036;2023-05-24T04:26:41;1.60;;;1.15;;
22298;SDS011;11317;51.072;17.036;2023-05-24T04:29:08;2.40;;;1.58;;
22298;SDS011;11317;51.072;17.036;2023-05-24T04:31:34;3.42;;;1.42;;
22298;SDS011;11317;51.072;17.036;2023-05-24T04:34:00;2.83;;;1.58;;
22298;SDS011;11317;51.072;17.036;2023-05-24T04:36:26;1.92;;;1.40;;
22298;SDS011;11317;51.072;17.036;2023-05-24T04:38:55;2.35;;;1.58;;
22298;SDS011;11317;51.072;17.036;2023-05-24T04:41:26;2.97;;;2.05;;
22298;SDS011;11317;51.072;17.036;2023-05-24T04:43:55;3.75;;;2.00;;
22298;SDS011;11317;51.072;17.036;2023-05-24T04:46:24;9.70;;;2.53;;
22298;SDS011;11317;51.072;17.036;2023-05-24T04:48:51;4.00;;;2.20;;
22298;SDS011;11317;51.072;17.036;2023-05-24T04:51:17;5.20;;;3.05;;
22298;SDS011;11317;51.072;17.036;2023-05-24T04:53:43;4.65;;;2.88;;
22298;SDS011;11317;51.072;17.036;2023-05-24T04:56:09;4.75;;;2.90;;
22298;SDS011;11317;51.072;17.036;2023-05-24T04:58:39;6.60;;;2.90;;
22298;SDS011;11317;51.072;17.036;2023-05-24T05:01:05;5.25;;;3.00;;
22298;SDS011;11317;51.072;17.036;2023-05-24T05:03:31;4.40;;;2.53;;
22298;SDS011;11317;51.072;17.036;2023-05-24T05:05:57;5.85;;;2.65;;
22298;SDS011;11317;51.072;17.036;2023-05-24T05:08:24;5.80;;;2.40;;
22298;SDS011;11317;51.072;17.036;2023-05-24T05:10:49;4.03;;;2.50;;
22298;SDS011;11317;51.072;17.036;2023-05-24T05:13:16;3.97;;;2.50;;
22298;SDS011;11317;51.072;17.036;2023-05-24T05:15:42;4.53;;;2.40;;
22298;SDS011;11317;51.072;17.036;2023-05-24T05:18:08;4.75;;;2.08;;
22298;SDS011;11317;51.072;17.036;2023-05-24T05:20:34;2.45;;;1.92;;
22298;SDS011;11317;51.072;17.036;2023-05-24T05:23:00;5.05;;;2.25;;
22298;SDS011;11317;51.072;17.036;2023-05-24T05:25:26;3.30;;;2.30;;
22298;SDS011;11317;51.072;17.036;2023-05-24T05:27:52;5.18;;;2.10;;
22298;SDS011;11317;51.072;17.036;2023-05-24T05:30:18;3.85;;;2.10;;
22298;SDS011;11317;51.072;17.036;2023-05-24T05:32:44;3.40;;;2.00;;
22298;SDS011;11317;51.072;17.036;2023-05-24T05:35:10;3.50;;;2.13;;
22298;SDS011;11317;51.072;17.036;2023-05-24T05:37:36;2.92;;;2.05;;
22298;SDS011;11317;51.072;17.036;2023-05-24T05:40:02;5.95;;;2.35;;
22298;SDS011;11317;51.072;17.036;2023-05-24T05:42:28;1.98;;;1.73;;
22298;SDS011;11317;51.072;17.036;2023-05-24T05:44:54;4.90;;;2.20;;
22298;SDS011;11317;51.072;17.036;2023-05-24T05:47:21;3.33;;;2.08;;
22298;SDS011;11317;51.072;17.036;2023-05-24T05:49:46;6.72;;;2.47;;
22298;SDS011;11317;51.072;17.036;2023-05-24T05:52:13;4.38;;;2.35;;
22298;SDS011;11317;51.072;17.036;2023-05-24T05:54:39;7.18;;;2.83;;
22298;SDS011;11317;51.072;17.036;2023-05-24T05:57:05;6.93;;;3.17;;
22298;SDS011;11317;51.072;17.036;2023-05-24T05:59:34;4.15;;;2.40;;
22298;SDS011;11317;51.072;17.036;2023-05-24T06:02:00;9.35;;;3.15;;
22298;SDS011;11317;51.072;17.036;2023-05-24T06:04:27;6.38;;;3.10;;
22298;SDS011;11317;51.072;17.036;2023-05-24T06:06:53;2.63;;;2.40;;
22298;SDS011;11317;51.072;17.036;2023-05-24T06:09:19;2.92;;;2.40;;
22298;SDS011;11317;51.072;17.036;2023-05-24T06:11:45;6.22;;;2.75;;
22298;SDS011;11317;51.072;17.036;2023-05-24T06:14:12;6.10;;;2.50;;
22298;SDS011;11317;51.072;17.036;2023-05-24T06:16:49;5.63;;;2.25;;
22298;SDS011;11317;51.072;17.036;2023-05-24T06:19:16;7.90;;;2.67;;
22298;SDS011;11317;51.072;17.036;2023-05-24T06:21:43;4.28;;;2.33;;
22298;SDS011;11317;51.072;17.036;2023-05-24T06:24:12;6.28;;;2.30;;
22298;SDS011;11317;51.072;17.036;2023-05-24T06:26:39;4.93;;;2.85;;
22298;SDS011;11317;51.072;17.036;2023-05-24T06:29:06;10.55;;;2.58;;
22298;SDS011;11317;51.072;17.036;2023-05-24T06:31:33;4.13;;;2.20;;
22298;SDS011;11317;51.072;17.036;2023-05-24T06:33:59;5.40;;;2.30;;
22298;SDS011;11317;51.072;17.036;2023-05-24T06:36:25;5.53;;;2.33;;
22298;SDS011;11317;51.072;17.036;2023-05-24T06:38:51;8.70;;;1.98;;
22298;SDS011;11317;51.072;17.036;2023-05-24T06:41:17;5.43;;;1.95;;
22298;SDS011;11317;51.072;17.036;2023-05-24T06:43:43;4.75;;;2.03;;
22298;SDS011;11317;51.072;17.036;2023-05-24T06:46:10;5.05;;;2.00;;
22298;SDS011;11317;51.072;17.036;2023-05-24T06:48:36;6.90;;;2.10;;
22298;SDS011;11317;51.072;17.036;2023-05-24T06:51:02;6.43;;;1.80;;
22298;SDS011;11317;51.072;17.036;2023-05-24T06:53:28;3.67;;;1.77;;
22298;SDS011;11317;51.072;17.036;2023-05-24T06:55:54;5.00;;;2.22;;
22298;SDS011;11317;51.072;17.036;2023-05-24T06:58:20;10.52;;;2.35;;
22298;SDS011;11317;51.072;17.036;2023-05-24T07:00:46;16.60;;;1.95;;
22298;SDS011;11317;51.072;17.036;2023-05-24T07:03:14;4.75;;;2.17;;
22298;SDS011;11317;51.072;17.036;2023-05-24T07:05:40;6.15;;;2.30;;
22298;SDS011;11317;51.072;17.036;2023-05-24T07:08:06;6.32;;;2.10;;
22298;SDS011;11317;51.072;17.036;2023-05-24T07:10:33;8.90;;;2.58;;
22298;SDS011;11317;51.072;17.036;2023-05-24T07:12:59;6.32;;;2.08;;
22298;SDS011;11317;51.072;17.036;2023-05-24T07:15:25;10.23;;;2.47;;
22298;SDS011;11317;51.072;17.036;2023-05-24T07:17:52;8.07;;;2.30;;
22298;SDS011;11317;51.072;17.036;2023-05-24T07:20:17;7.45;;;2.67;;
22298;SDS011;11317;51.072;17.036;2023-05-24T07:22:43;5.45;;;2.13;;
22298;SDS011;11317;51.072;17.036;2023-05-24T07:25:10;7.47;;;2.30;;
22298;SDS011;11317;51.072;17.036;2023-05-24T07:27:36;7.75;;;2.30;;
22298;SDS011;11317;51.072;17.036;2023-05-24T07:30:02;8.07;;;2.63;;
22298;SDS011;11317;51.072;17.036;2023-05-24T07:32:28;8.15;;;2.55;;
22298;SDS011;11317;51.072;17.036;2023-05-24T07:34:57;4.90;;;2.35;;
22298;SDS011;11317;51.072;17.036;2023-05-24T07:37:22;8.55;;;3.30;;
22298;SDS011;11317;51.072;17.036;2023-05-24T07:39:49;4.90;;;3.30;;
22298;SDS011;11317;51.072;17.036;2023-05-24T07:42:16;8.68;;;3.60;;
22298;SDS011;11317;51.072;17.036;2023-05-24T07:44:42;8.63;;;3.90;;
22298;SDS011;11317;51.072;17.036;2023-05-24T07:47:07;8.07;;;3.72;;
22298;SDS011;11317;51.072;17.036;2023-05-24T07:49:33;8.80;;;4.10;;
22298;SDS011;11317;51.072;17.036;2023-05-24T07:51:59;7.50;;;3.25;;
22298;SDS011;11317;51.072;17.036;2023-05-24T07:54:28;8.73;;;3.80;;
22298;SDS011;11317;51.072;17.036;2023-05-24T07:56:54;7.47;;;3.25;;
22298;SDS011;11317;51.072;17.036;2023-05-24T07:59:21;9.30;;;3.78;;
22298;SDS011;11317;51.072;17.036;2023-05-24T08:01:47;5.97;;;3.65;;
22298;SDS011;11317;51.072;17.036;2023-05-24T08:04:14;6.72;;;3.60;;
22298;SDS011;11317;51.072;17.036;2023-05-24T08:06:40;10.05;;;3.60;;
22298;SDS011;11317;51.072;17.036;2023-05-24T08:09:06;11.30;;;3.55;;
22298;SDS011;11317;51.072;17.036;2023-05-24T08:11:33;12.27;;;3.38;;
22298;SDS011;11317;51.072;17.036;2023-05-24T08:13:59;7.07;;;3.72;;
22298;SDS011;11317;51.072;17.036;2023-05-24T08:16:25;7.00;;;3.00;;
22298;SDS011;11317;51.072;17.036;2023-05-24T08:18:50;5.55;;;2.80;;
22298;SDS011;11317;51.072;17.036;2023-05-24T08:21:17;4.28;;;2.53;;
22298;SDS011;11317;51.072;17.036;2023-05-24T08:23:43;8.77;;;3.33;;
22298;SDS011;11317;51.072;17.036;2023-05-24T08:26:09;7.55;;;3.13;;
22298;SDS011;11317;51.072;17.036;2023-05-24T08:28:35;6.43;;;3.22;;
22298;SDS011;11317;51.072;17.036;2023-05-24T08:31:01;9.52;;;3.00;;
22298;SDS011;11317;51.072;17.036;2023-05-24T08:33:28;4.93;;;2.65;;
22298;SDS011;11317;51.072;17.036;2023-05-24T08:35:54;8.40;;;3.05;;
22298;SDS011;11317;51.072;17.036;2023-05-24T08:38:20;9.77;;;2.75;;
22298;SDS011;11317;51.072;17.036;2023-05-24T08:40:46;9.35;;;3.17;;
22298;SDS011;11317;51.072;17.036;2023-05-24T08:43:13;5.88;;;2.33;;
22298;SDS011;11317;51.072;17.036;2023-05-24T08:45:39;5.57;;;3.20;;
22298;SDS011;11317;51.072;17.036;2023-05-24T08:48:05;5.65;;;2.47;;
22298;SDS011;11317;51.072;17.036;2023-05-24T08:50:32;8.32;;;2.95;;
22298;SDS011;11317;51.072;17.036;2023-05-24T08:52:58;8.77;;;3.22;;
22298;SDS011;11317;51.072;17.036;2023-05-24T08:55:26;6.07;;;2.47;;
22298;SDS011;11317;51.072;17.036;2023-05-24T08:57:53;8.57;;;2.80;;
22298;SDS011;11317;51.072;17.036;2023-05-24T09:00:20;5.47;;;2.78;;
22298;SDS011;11317;51.072;17.036;2023-05-24T09:02:48;6.45;;;2.40;;
22298;SDS011;11317;51.072;17.036;2023-05-24T09:05:14;4.72;;;2.42;;
22298;SDS011;11317;51.072;17.036;2023-05-24T09:07:45;7.20;;;3.13;;
22298;SDS011;11317;51.072;17.036;2023-05-24T09:10:13;5.22;;;2.38;;
22298;SDS011;11317;51.072;17.036;2023-05-24T09:12:43;4.63;;;2.53;;
22298;SDS011;11317;51.072;17.036;2023-05-24T09:15:12;8.30;;;2.97;;
22298;SDS011;11317;51.072;17.036;2023-05-24T09:17:38;6.53;;;2.63;;
22298;SDS011;11317;51.072;17.036;2023-05-24T09:20:05;4.35;;;2.42;;
22298;SDS011;11317;51.072;17.036;2023-05-24T09:22:33;7.90;;;3.13;;
22298;SDS011;11317;51.072;17.036;2023-05-24T09:25:02;7.20;;;2.67;;
22298;SDS011;11317;51.072;17.036;2023-05-24T09:27:30;3.53;;;2.25;;
22298;SDS011;11317;51.072;17.036;2023-05-24T09:29:57;4.07;;;2.55;;
22298;SDS011;11317;51.072;17.036;2023-05-24T09:32:23;5.20;;;2.45;;
22298;SDS011;11317;51.072;17.036;2023-05-24T09:34:52;6.20;;;2.53;;
22298;SDS011;11317;51.072;17.036;2023-05-24T09:37:19;4.07;;;2.25;;
22298;SDS011;11317;51.072;17.036;2023-05-24T09:39:47;4.95;;;2.63;;
22298;SDS011;11317;51.072;17.036;2023-05-24T09:42:16;4.38;;;2.08;;
22298;SDS011;11317;51.072;17.036;2023-05-24T09:47:29;6.38;;;2.90;;
22298;SDS011;11317;51.072;17.036;2023-05-24T09:49:55;3.95;;;2.50;;
22298;SDS011;11317;51.072;17.036;2023-05-24T09:52:22;5.10;;;2.70;;
22298;SDS011;11317;51.072;17.036;2023-05-24T09:54:48;5.68;;;2.83;;
22298;SDS011;11317;51.072;17.036;2023-05-24T09:57:17;10.38;;;4.93;;
22298;SDS011;11317;51.072;17.036;2023-05-24T09:59:43;5.55;;;2.80;;
22298;SDS011;11317;51.072;17.036;2023-05-24T10:02:09;3.10;;;2.60;;
22298;SDS011;11317;51.072;17.036;2023-05-24T10:04:36;5.22;;;3.28;;
22298;SDS011;11317;51.072;17.036;2023-05-24T10:07:03;7.47;;;2.50;;
22298;SDS011;11317;51.072;17.036;2023-05-24T10:09:33;6.65;;;2.88;;
22298;SDS011;11317;51.072;17.036;2023-05-24T10:12:06;3.83;;;2.85;;
22298;SDS011;11317;51.072;17.036;2023-05-24T10:14:36;5.55;;;2.55;;
22298;SDS011;11317;51.072;17.036;2023-05-24T10:17:06;5.22;;;3.00;;
22298;SDS011;11317;51.072;17.036;2023-05-24T10:19:32;4.22;;;2.92;;
22298;SDS011;11317;51.072;17.036;2023-05-24T10:21:59;8.30;;;2.97;;
22298;SDS011;11317;51.072;17.036;2023-05-24T10:24:31;8.32;;;2.80;;
22298;SDS011;11317;51.072;17.036;2023-05-24T10:27:02;6.17;;;2.50;;
22298;SDS011;11317;51.072;17.036;2023-05-24T10:32:25;6.50;;;2.97;;
22298;SDS011;11317;51.072;17.036;2023-05-24T10:34:56;4.35;;;2.70;;
22298;SDS011;11317;51.072;17.036;2023-05-24T10:37:23;6.30;;;2.88;;
22298;SDS011;11317;51.072;17.036;2023-05-24T10:39:51;4.50;;;2.85;;
22298;SDS011;11317;51.072;17.036;2023-05-24T10:42:17;7.22;;;3.35;;
22298;SDS011;11317;51.072;17.036;2023-05-24T10:44:43;7.15;;;3.13;;
22298;SDS011;11317;51.072;17.036;2023-05-24T10:47:13;8.25;;;3.00;;
22298;SDS011;11317;51.072;17.036;2023-05-24T10:49:50;4.57;;;2.78;;
22298;SDS011;11317;51.072;17.036;2023-05-24T10:52:19;7.13;;;3.00;;
22298;SDS011;11317;51.072;17.036;2023-05-24T10:55:06;6.53;;;2.85;;
22298;SDS011;11317;51.072;17.036;2023-05-24T10:57:33;4.70;;;2.72;;
22298;SDS011;11317;51.072;17.036;2023-05-24T11:02:47;6.63;;;2.70;;
22298;SDS011;11317;51.072;17.036;2023-05-24T11:05:14;6.03;;;3.13;;
22298;SDS011;11317;51.072;17.036;2023-05-24T11:07:41;7.25;;;2.92;;
22298;SDS011;11317;51.072;17.036;2023-05-24T11:10:16;6.97;;;3.25;;
22298;SDS011;11317;51.072;17.036;2023-05-24T11:13:00;8.35;;;3.28;;
22298;SDS011;11317;51.072;17.036;2023-05-24T11:15:26;3.90;;;3.03;;
22298;SDS011;11317;51.072;17.036;2023-05-24T11:20:37;6.95;;;2.97;;
22298;SDS011;11317;51.072;17.036;2023-05-24T11:23:08;9.65;;;3.08;;
22298;SDS011;11317;51.072;17.036;2023-05-24T11:25:34;5.45;;;2.80;;
22298;SDS011;11317;51.072;17.036;2023-05-24T11:28:01;4.80;;;2.78;;
22298;SDS011;11317;51.072;17.036;2023-05-24T11:30:31;6.10;;;2.72;;
22298;SDS011;11317;51.072;17.036;2023-05-24T11:32:57;3.63;;;2.30;;
22298;SDS011;11317;51.072;17.036;2023-05-24T11:35:26;3.22;;;2.30;;
22298;SDS011;11317;51.072;17.036;2023-05-24T11:37:54;4.68;;;2.67;;
22298;SDS011;11317;51.072;17.036;2023-05-24T11:40:22;5.70;;;3.30;;
22298;SDS011;11317;51.072;17.036;2023-05-24T11:42:49;7.03;;;3.20;;
22298;SDS011;11317;51.072;17.036;2023-05-24T11:45:16;8.38;;;3.08;;
22298;SDS011;11317;51.072;17.036;2023-05-24T11:47:47;7.28;;;3.53;;
22298;SDS011;11317;51.072;17.036;2023-05-24T11:50:14;6.50;;;3.25;;
22298;SDS011;11317;51.072;17.036;2023-05-24T11:52:40;6.25;;;3.00;;
22298;SDS011;11317;51.072;17.036;2023-05-24T11:55:06;3.40;;;2.70;;
22298;SDS011;11317;51.072;17.036;2023-05-24T11:57:38;4.35;;;2.08;;
22298;SDS011;11317;51.072;17.036;2023-05-24T12:00:11;6.78;;;2.67;;
22298;SDS011;11317;51.072;17.036;2023-05-24T12:02:41;5.28;;;2.30;;
22298;SDS011;11317;51.072;17.036;2023-05-24T12:05:08;5.40;;;2.38;;
22298;SDS011;11317;51.072;17.036;2023-05-24T12:07:36;7.22;;;3.08;;
22298;SDS011;11317;51.072;17.036;2023-05-24T12:10:02;5.50;;;2.70;;
22298;SDS011;11317;51.072;17.036;2023-05-24T12:12:29;4.63;;;2.30;;
22298;SDS011;11317;51.072;17.036;2023-05-24T12:14:55;6.57;;;2.60;;
22298;SDS011;11317;51.072;17.036;2023-05-24T12:17:21;5.60;;;2.40;;
22298;SDS011;11317;51.072;17.036;2023-05-24T12:19:47;4.82;;;2.60;;
22298;SDS011;11317;51.072;17.036;2023-05-24T12:22:17;5.18;;;2.67;;
22298;SDS011;11317;51.072;17.036;2023-05-24T12:24:43;5.88;;;3.15;;
22298;SDS011;11317;51.072;17.036;2023-05-24T12:27:10;5.30;;;3.17;;
22298;SDS011;11317;51.072;17.036;2023-05-24T12:29:36;6.28;;;2.85;;
22298;SDS011;11317;51.072;17.036;2023-05-24T12:32:05;8.52;;;3.42;;
22298;SDS011;11317;51.072;17.036;2023-05-24T12:34:36;9.45;;;3.10;;
22298;SDS011;11317;51.072;17.036;2023-05-24T12:37:04;7.07;;;2.85;;
22298;SDS011;11317;51.072;17.036;2023-05-24T12:39:34;6.00;;;3.03;;
22298;SDS011;11317;51.072;17.036;2023-05-24T12:42:01;7.10;;;2.90;;
22298;SDS011;11317;51.072;17.036;2023-05-24T12:44:29;4.32;;;2.38;;
22298;SDS011;11317;51.072;17.036;2023-05-24T12:47:00;5.38;;;2.72;;
22298;SDS011;11317;51.072;17.036;2023-05-24T12:49:27;6.90;;;2.80;;
22298;SDS011;11317;51.072;17.036;2023-05-24T12:51:54;8.25;;;2.88;;
22298;SDS011;11317;51.072;17.036;2023-05-24T12:54:22;6.82;;;2.95;;
22298;SDS011;11317;51.072;17.036;2023-05-24T12:56:50;7.55;;;2.50;;
22298;SDS011;11317;51.072;17.036;2023-05-24T12:59:16;6.05;;;2.28;;
22298;SDS011;11317;51.072;17.036;2023-05-24T13:01:42;6.20;;;2.17;;
22298;SDS011;11317;51.072;17.036;2023-05-24T13:04:14;8.50;;;2.70;;
22298;SDS011;11317;51.072;17.036;2023-05-24T13:06:41;4.97;;;2.30;;
22298;SDS011;11317;51.072;17.036;2023-05-24T13:09:07;4.25;;;2.38;;
22298;SDS011;11317;51.072;17.036;2023-05-24T13:11:34;5.65;;;2.63;;
22298;SDS011;11317;51.072;17.036;2023-05-24T13:14:03;5.97;;;2.60;;
22298;SDS011;11317;51.072;17.036;2023-05-24T13:16:30;8.07;;;2.78;;
22298;SDS011;11317;51.072;17.036;2023-05-24T13:18:57;6.55;;;2.88;;
22298;SDS011;11317;51.072;17.036;2023-05-24T13:21:23;5.93;;;3.00;;
22298;SDS011;11317;51.072;17.036;2023-05-24T13:23:49;5.68;;;3.03;;
22298;SDS011;11317;51.072;17.036;2023-05-24T13:26:16;4.90;;;2.50;;
22298;SDS011;11317;51.072;17.036;2023-05-24T13:28:42;8.90;;;2.78;;
22298;SDS011;11317;51.072;17.036;2023-05-24T13:31:08;4.65;;;2.80;;
22298;SDS011;11317;51.072;17.036;2023-05-24T13:33:34;10.20;;;2.63;;
22298;SDS011;11317;51.072;17.036;2023-05-24T13:36:00;4.35;;;2.67;;
22298;SDS011;11317;51.072;17.036;2023-05-24T13:38:26;7.70;;;2.33;;
22298;SDS011;11317;51.072;17.036;2023-05-24T13:40:52;7.45;;;2.80;;
22298;SDS011;11317;51.072;17.036;2023-05-24T13:43:19;7.15;;;2.97;;
22298;SDS011;11317;51.072;17.036;2023-05-24T13:45:45;4.32;;;2.28;;
22298;SDS011;11317;51.072;17.036;2023-05-24T13:48:11;7.25;;;2.70;;
22298;SDS011;11317;51.072;17.036;2023-05-24T13:50:37;6.35;;;2.80;;
22298;SDS011;11317;51.072;17.036;2023-05-24T13:53:03;6.82;;;2.58;;
22298;SDS011;11317;51.072;17.036;2023-05-24T13:55:32;4.10;;;2.20;;
22298;SDS011;11317;51.072;17.036;2023-05-24T13:58:00;3.05;;;1.80;;
22298;SDS011;11317;51.072;17.036;2023-05-24T14:00:26;3.55;;;2.15;;
22298;SDS011;11317;51.072;17.036;2023-05-24T14:02:52;4.20;;;2.17;;
22298;SDS011;11317;51.072;17.036;2023-05-24T14:05:18;3.25;;;2.13;;
22298;SDS011;11317;51.072;17.036;2023-05-24T14:07:45;8.63;;;2.78;;
22298;SDS011;11317;51.072;17.036;2023-05-24T14:10:11;4.88;;;2.17;;
22298;SDS011;11317;51.072;17.036;2023-05-24T14:12:37;6.80;;;2.38;;
22298;SDS011;11317;51.072;17.036;2023-05-24T14:15:03;9.77;;;2.47;;
22298;SDS011;11317;51.072;17.036;2023-05-24T14:17:30;5.45;;;1.98;;
22298;SDS011;11317;51.072;17.036;2023-05-24T14:19:56;5.10;;;2.22;;
22298;SDS011;11317;51.072;17.036;2023-05-24T14:22:23;4.97;;;2.30;;
22298;SDS011;11317;51.072;17.036;2023-05-24T14:24:50;4.10;;;2.10;;
22298;SDS011;11317;51.072;17.036;2023-05-24T14:27:16;3.90;;;2.03;;
22298;SDS011;11317;51.072;17.036;2023-05-24T14:29:42;5.82;;;2.50;;
22298;SDS011;11317;51.072;17.036;2023-05-24T14:32:08;5.88;;;1.92;;
22298;SDS011;11317;51.072;17.036;2023-05-24T14:34:35;4.72;;;2.25;;
22298;SDS011;11317;51.072;17.036;2023-05-24T14:37:01;7.03;;;2.33;;
22298;SDS011;11317;51.072;17.036;2023-05-24T14:39:27;4.03;;;1.90;;
22298;SDS011;11317;51.072;17.036;2023-05-24T14:41:54;3.95;;;1.80;;
22298;SDS011;11317;51.072;17.036;2023-05-24T14:44:20;2.20;;;1.67;;
22298;SDS011;11317;51.072;17.036;2023-05-24T14:46:46;3.47;;;1.90;;
22298;SDS011;11317;51.072;17.036;2023-05-24T14:49:13;9.13;;;2.33;;
22298;SDS011;11317;51.072;17.036;2023-05-24T14:51:38;4.82;;;2.00;;
22298;SDS011;11317;51.072;17.036;2023-05-24T14:54:04;6.13;;;2.35;;
22298;SDS011;11317;51.072;17.036;2023-05-24T14:56:31;6.97;;;1.95;;
22298;SDS011;11317;51.072;17.036;2023-05-24T14:58:57;6.35;;;2.03;;
22298;SDS011;11317;51.072;17.036;2023-05-24T15:01:23;4.10;;;2.00;;